createdAt,value
2024-02-20T00:00:44.179Z,52019.63
2024-02-20T00:03:12.345Z,52081.81
2024-02-20T00:05:40.720Z,52037.69
2024-02-20T00:08:08.954Z,52021.63
2024-02-20T00:10:38.858Z,52093.88
2024-02-20T00:13:07.404Z,52053.75
2024-02-20T00:15:36.092Z,52021.63
2024-02-20T00:18:05.412Z,52031.66
2024-02-20T00:20:33.871Z,52035.69
2024-02-20T00:23:02.071Z,52055.75
2024-02-20T00:25:30.288Z,52053.75
2024-02-20T00:27:59.857Z,52023.63
2024-02-20T00:30:28.058Z,52075.81
2024-02-20T00:32:56.281Z,52041.69
2024-02-20T00:35:24.914Z,52059.75
2024-02-20T00:37:53.188Z,52059.75
2024-02-20T00:40:21.405Z,52045.72
2024-02-20T00:42:49.768Z,52041.69
2024-02-20T00:45:19.765Z,52091.84
2024-02-20T00:47:48.317Z,52049.72
2024-02-20T00:50:17.366Z,52011.59
2024-02-20T00:52:45.565Z,52065.78
2024-02-20T00:55:14.434Z,52051.72
2024-02-20T00:57:43.394Z,52057.75
2024-02-20T01:00:14.575Z,52085.84
2024-02-20T01:02:46.359Z,52091.84
2024-02-20T01:05:14.593Z,52053.75
2024-02-20T01:07:43.090Z,52089.84
2024-02-20T01:10:11.561Z,52073.81
2024-02-20T01:12:40.798Z,52089.84
2024-02-20T01:15:09.953Z,52067.78
2024-02-20T01:17:39.209Z,52065.78
2024-02-20T01:20:09.475Z,52073.81
2024-02-20T01:22:38.094Z,52059.75
2024-02-20T01:25:06.656Z,52037.69
2024-02-20T01:27:35.124Z,52053.75
2024-02-20T01:30:03.655Z,52033.69
2024-02-20T01:32:33.046Z,52061.75
2024-02-20T01:35:01.324Z,52023.63
2024-02-20T01:37:31.408Z,52075.81
2024-02-20T01:39:59.723Z,52081.81
2024-02-20T01:42:28.602Z,52045.72
2024-02-20T01:44:56.931Z,52065.78
2024-02-20T01:47:26.711Z,52073.81
2024-02-20T01:49:56.018Z,52069.78
2024-02-20T01:52:24.370Z,52005.59
2024-02-20T01:54:55.684Z,52089.84
2024-02-20T01:57:23.956Z,52071.78
2024-02-20T01:59:52.559Z,52043.72
2024-02-20T02:02:21.184Z,52063.78
2024-02-20T02:04:49.573Z,52071.78
2024-02-20T02:07:18.806Z,52073.81
2024-02-20T02:09:47.209Z,52037.69
2024-02-20T02:12:16.906Z,52095.88
2024-02-20T02:14:46.717Z,52101.88
2024-02-20T02:17:15.419Z,52061.75
2024-02-20T02:19:44.664Z,52069.78
2024-02-20T02:22:12.916Z,52055.75
2024-02-20T02:24:41.135Z,52081.81
2024-02-20T02:27:10.612Z,52047.72
2024-02-20T02:29:38.773Z,52101.88
2024-02-20T02:32:07.566Z,52117.94
2024-02-20T02:34:35.747Z,52045.72
2024-02-20T02:37:04.083Z,52081.81
2024-02-20T02:39:32.274Z,52075.81
2024-02-20T02:42:00.412Z,52057.75
2024-02-20T02:44:30.373Z,52063.78
2024-02-20T02:46:58.574Z,52087.84
2024-02-20T02:49:26.954Z,52065.78
2024-02-20T02:51:55.194Z,52087.84
2024-02-20T02:54:26.430Z,52077.81
2024-02-20T02:56:55.810Z,52091.84
2024-02-20T02:59:26.855Z,52059.75
2024-02-20T03:01:56.718Z,52085.84
2024-02-20T03:04:25.401Z,52105.91
2024-02-20T03:06:55.018Z,52049.72
2024-02-20T03:09:24.594Z,52101.88
2024-02-20T03:11:52.923Z,52109.91
2024-02-20T03:14:25.202Z,52071.78
2024-02-20T03:16:53.797Z,52123.97
2024-02-20T03:19:25.110Z,52077.81
2024-02-20T03:21:54.504Z,52085.84
2024-02-20T03:24:23.062Z,52097.88
2024-02-20T03:26:52.934Z,52063.78
2024-02-20T03:29:23.525Z,52063.78
2024-02-20T03:31:51.961Z,52097.88
2024-02-20T03:34:20.401Z,52063.78
2024-02-20T03:36:50.585Z,52081.81
2024-02-20T03:39:19.134Z,52158.06
2024-02-20T03:41:47.676Z,52085.84
2024-02-20T03:44:16.086Z,52107.91
2024-02-20T03:46:44.490Z,52071.78
2024-02-20T03:49:13.258Z,52101.88
2024-02-20T03:51:44.249Z,52093.88
2024-02-20T03:54:13.984Z,52107.91
2024-02-20T03:56:42.409Z,52127.97
2024-02-20T03:59:11.113Z,52057.75
2024-02-20T04:01:39.703Z,52053.75
2024-02-20T04:04:09.059Z,52101.88
2024-02-20T04:06:40.209Z,52095.88
2024-02-20T04:09:08.834Z,52089.84
2024-02-20T04:11:40.303Z,52093.88
2024-02-20T04:14:08.987Z,52109.91
2024-02-20T04:16:37.729Z,52103.91
2024-02-20T04:19:06.168Z,52109.91
2024-02-20T04:21:34.668Z,52095.88
2024-02-20T04:24:03.128Z,52077.81
2024-02-20T04:26:38.397Z,52099.88
2024-02-20T04:29:09.081Z,52136.00
2024-02-20T04:31:44.186Z,52123.97
2024-02-20T04:34:13.908Z,52041.69
2024-02-20T04:36:43.176Z,52073.81
2024-02-20T04:39:12.073Z,52101.88
2024-02-20T04:41:43.383Z,52093.88
2024-02-20T04:44:15.084Z,52075.81
2024-02-20T04:46:45.345Z,52093.88
2024-02-20T04:49:14.214Z,52103.91
2024-02-20T04:51:42.839Z,52123.97
2024-02-20T04:54:11.272Z,52103.91
2024-02-20T04:56:41.277Z,52129.97
2024-02-20T04:59:09.615Z,52085.84
2024-02-20T05:01:39.546Z,52117.94
2024-02-20T05:04:09.292Z,52105.91
2024-02-20T05:06:40.488Z,52085.84
2024-02-20T05:09:10.983Z,52057.75
2024-02-20T05:11:39.426Z,52087.84
2024-02-20T05:14:07.939Z,52095.88
2024-02-20T05:16:36.683Z,52111.91
2024-02-20T05:19:06.787Z,52150.03
2024-02-20T05:21:35.411Z,52117.94
2024-02-20T05:24:03.767Z,52131.97
2024-02-20T05:26:32.099Z,52081.81
2024-02-20T05:29:02.398Z,52111.91
2024-02-20T05:31:36.585Z,52057.75
2024-02-20T05:34:08.239Z,52103.91
2024-02-20T05:36:36.556Z,52093.88
2024-02-20T05:39:07.056Z,52109.91
2024-02-20T05:41:35.265Z,52109.91
2024-02-20T05:44:03.477Z,52041.69
2024-02-20T05:46:32.482Z,52115.94
2024-02-20T05:49:02.025Z,52049.72
2024-02-20T05:51:33.110Z,52087.84
2024-02-20T05:54:03.406Z,52095.88
2024-02-20T05:56:33.278Z,52105.91
2024-02-20T05:59:03.459Z,52109.91
2024-02-20T06:01:42.513Z,52105.91
2024-02-20T06:04:13.504Z,52123.97
2024-02-20T06:06:43.952Z,52091.84
2024-02-20T06:09:13.119Z,52093.88
2024-02-20T06:11:42.210Z,52123.97
2024-02-20T06:14:14.318Z,52093.88
2024-02-20T06:16:44.371Z,52089.84
2024-02-20T06:19:13.016Z,52063.78
2024-02-20T06:21:41.743Z,52069.78
2024-02-20T06:24:12.393Z,52089.84
2024-02-20T06:26:40.918Z,52091.84
2024-02-20T06:29:12.406Z,52081.81
2024-02-20T06:31:41.540Z,52115.94
2024-02-20T06:34:14.877Z,52121.94
2024-02-20T06:36:50.607Z,52089.84
2024-02-20T06:40:47.884Z,52097.88
2024-02-20T06:43:40.345Z,52103.91
2024-02-20T06:46:13.674Z,52089.84
2024-02-20T06:48:45.352Z,52113.94
2024-02-20T06:51:25.896Z,52073.81
2024-02-20T06:53:56.516Z,52075.81
2024-02-20T06:56:29.455Z,52085.84
2024-02-20T06:59:15.889Z,52073.81
2024-02-20T07:01:48.162Z,52101.88
2024-02-20T07:04:18.142Z,52049.72
2024-02-20T07:06:54.483Z,52051.72
2024-02-20T07:09:23.999Z,52095.88
2024-02-20T07:11:57.035Z,52043.72
2024-02-20T07:14:28.228Z,52051.72
2024-02-20T07:16:56.567Z,52061.75
2024-02-20T07:19:26.498Z,52049.72
2024-02-20T07:21:55.392Z,52035.69
2024-02-20T07:24:24.185Z,52029.66
2024-02-20T07:26:52.869Z,52061.75
2024-02-20T07:29:21.718Z,52079.81
2024-02-20T07:31:54.269Z,52029.66
2024-02-20T07:34:22.968Z,52095.88
2024-02-20T07:36:55.333Z,52061.75
2024-02-20T07:39:25.463Z,52049.72
2024-02-20T07:41:53.998Z,52049.72
2024-02-20T07:44:24.414Z,52029.66
2024-02-20T07:46:55.761Z,52027.66
2024-02-20T07:49:32.656Z,52017.63
2024-02-20T07:52:01.387Z,52009.59
2024-02-20T07:54:32.201Z,52017.63
2024-02-20T07:57:00.764Z,52057.75
2024-02-20T07:59:29.493Z,52019.63
2024-02-20T08:02:06.458Z,51999.56
2024-02-20T08:04:35.331Z,52021.63
2024-02-20T08:07:05.397Z,52007.59
2024-02-20T08:09:55.725Z,51969.47
2024-02-20T08:12:35.916Z,52029.66
2024-02-20T08:15:12.429Z,51993.56
2024-02-20T08:17:47.229Z,52023.63
2024-02-20T08:20:18.750Z,51945.41
2024-02-20T08:22:49.367Z,51969.47
2024-02-20T08:25:18.186Z,51991.53
2024-02-20T08:27:46.947Z,51979.50
2024-02-20T08:30:16.343Z,51957.44
2024-02-20T08:32:58.221Z,51943.41
2024-02-20T08:35:30.007Z,51955.44
2024-02-20T08:38:05.097Z,51971.47
2024-02-20T08:41:00.926Z,51981.50
2024-02-20T08:43:29.733Z,51985.53
2024-02-20T08:45:58.548Z,51967.47
2024-02-20T08:48:31.957Z,51997.56
2024-02-20T08:51:00.561Z,51987.53
2024-02-20T08:53:29.233Z,51971.47
2024-02-20T08:55:57.898Z,51967.47
2024-02-20T08:58:26.594Z,51953.44
2024-02-20T09:00:56.541Z,51977.50
2024-02-20T09:03:29.850Z,51969.47
2024-02-20T09:06:00.426Z,51969.47
2024-02-20T09:08:29.099Z,51991.53
2024-02-20T09:10:59.668Z,51943.41
2024-02-20T09:13:28.343Z,51929.34
2024-02-20T09:15:56.974Z,51909.28
2024-02-20T09:18:26.234Z,51961.44
2024-02-20T09:20:54.723Z,51945.41
2024-02-20T09:23:24.490Z,51931.34
2024-02-20T09:25:53.309Z,51903.28
2024-02-20T09:28:22.996Z,51921.31
2024-02-20T09:30:51.460Z,51903.28
2024-02-20T09:33:20.194Z,51917.31
2024-02-20T09:35:51.416Z,51913.31
2024-02-20T09:38:20.177Z,51923.34
2024-02-20T09:40:50.663Z,51905.28
2024-02-20T09:43:21.690Z,51897.25
2024-02-20T09:45:52.132Z,51909.28
2024-02-20T09:48:20.744Z,51859.13
2024-02-20T09:51:01.976Z,51941.38
2024-02-20T09:53:32.165Z,51937.38
2024-02-20T09:56:04.339Z,51913.31
2024-02-20T09:58:34.164Z,51915.31
2024-02-20T10:01:05.839Z,51913.31
2024-02-20T10:03:39.678Z,51941.38
2024-02-20T10:06:10.511Z,51967.47
2024-02-20T10:08:41.659Z,51977.50
2024-02-20T10:11:11.978Z,51937.38
2024-02-20T10:13:45.615Z,51935.38
2024-02-20T10:16:17.178Z,51903.28
2024-02-20T10:18:46.067Z,51881.19
2024-02-20T10:21:16.543Z,51885.22
2024-02-20T10:23:44.992Z,51885.22
2024-02-20T10:26:20.298Z,51879.19
2024-02-20T10:28:48.908Z,51825.03
2024-02-20T10:31:18.696Z,51863.16
2024-02-20T10:34:00.316Z,51750.81
2024-02-20T10:36:36.108Z,51748.78
2024-02-20T10:39:08.360Z,51716.69
2024-02-20T10:41:38.544Z,51692.63
2024-02-20T10:44:09.244Z,51670.56
2024-02-20T10:46:41.286Z,51686.59
2024-02-20T10:49:17.797Z,51732.75
2024-02-20T10:51:46.813Z,51748.78
2024-02-20T10:54:15.468Z,51772.88
2024-02-20T10:56:45.722Z,51786.91
2024-02-20T10:59:17.150Z,51806.97
2024-02-20T11:01:46.341Z,51806.97
2024-02-20T11:04:16.576Z,51855.13
2024-02-20T11:06:48.809Z,51825.03
2024-02-20T11:09:37.586Z,51808.97
2024-02-20T11:12:34.176Z,51849.09
2024-02-20T11:15:07.876Z,51865.16
2024-02-20T11:17:37.104Z,51851.09
2024-02-20T11:20:09.988Z,51873.19
2024-02-20T11:22:39.198Z,51845.09
2024-02-20T11:25:09.328Z,51861.13
2024-02-20T11:27:43.781Z,51843.09
2024-02-20T11:30:24.337Z,51851.09
2024-02-20T11:32:53.687Z,51847.09
2024-02-20T11:35:24.828Z,51837.06
2024-02-20T11:37:59.791Z,51841.06
2024-02-20T11:40:29.012Z,51839.06
2024-02-20T11:43:00.939Z,51804.97
2024-02-20T11:45:31.451Z,51831.03
2024-02-20T11:48:04.593Z,51829.03
2024-02-20T11:50:36.013Z,51796.94
2024-02-20T11:53:06.649Z,51778.88
2024-02-20T11:55:36.177Z,51810.97
2024-02-20T11:58:06.802Z,51784.91
2024-02-20T12:00:36.480Z,51740.78
2024-02-20T12:03:06.258Z,51788.91
2024-02-20T12:05:39.116Z,51788.91
2024-02-20T12:08:15.316Z,51778.88
2024-02-20T12:10:44.890Z,51778.88
2024-02-20T12:13:29.438Z,51784.91
2024-02-20T12:16:19.195Z,51652.50
2024-02-20T12:18:48.059Z,51716.69
2024-02-20T12:21:16.999Z,51772.88
2024-02-20T12:23:53.091Z,51780.91
2024-02-20T12:26:22.206Z,51752.81
2024-02-20T12:28:52.442Z,51748.78
2024-02-20T12:31:23.945Z,51746.78
2024-02-20T12:33:53.519Z,51736.75
2024-02-20T12:36:24.658Z,51710.69
2024-02-20T12:38:53.813Z,51742.78
2024-02-20T12:41:25.341Z,51732.75
2024-02-20T12:43:55.214Z,51768.84
2024-02-20T12:46:23.660Z,51674.56
2024-02-20T12:48:56.406Z,51680.59
2024-02-20T12:51:28.831Z,51654.50
2024-02-20T12:53:58.593Z,51682.59
2024-02-20T12:56:27.237Z,51664.53
2024-02-20T12:59:03.075Z,51674.56
2024-02-20T13:01:35.130Z,51696.63
2024-02-20T13:04:07.068Z,51676.56
2024-02-20T13:06:36.175Z,51664.53
2024-02-20T13:09:04.536Z,51646.47
2024-02-20T13:11:33.824Z,51700.66
2024-02-20T13:14:04.898Z,51734.75
2024-02-20T13:16:33.280Z,51790.91
2024-02-20T13:19:02.324Z,51714.69
2024-02-20T13:21:30.746Z,51760.84
2024-02-20T13:24:00.614Z,51762.84
2024-02-20T13:26:30.047Z,51778.88
2024-02-20T13:28:58.393Z,51770.88
2024-02-20T13:31:28.675Z,51748.78
2024-02-20T13:34:05.993Z,51760.84
2024-02-20T13:36:34.715Z,51736.75
2024-02-20T13:39:04.195Z,51788.91
2024-02-20T13:41:33.044Z,51804.97
2024-02-20T13:44:04.489Z,51804.97
2024-02-20T13:46:36.152Z,51796.94
2024-02-20T13:49:04.657Z,51764.84
2024-02-20T13:51:33.185Z,51752.81
2024-02-20T13:54:02.577Z,51726.72
2024-02-20T13:56:44.847Z,51796.94
2024-02-20T13:59:13.254Z,51768.84
2024-02-20T14:01:42.917Z,51766.84
2024-02-20T14:04:11.298Z,51794.94
2024-02-20T14:06:56.681Z,51792.94
2024-02-20T14:09:26.180Z,51792.94
2024-02-20T14:12:06.833Z,51808.97
2024-02-20T14:15:04.500Z,51774.88
2024-02-20T14:17:34.538Z,51808.97
2024-02-20T14:26:19.377Z,51815.00
2024-02-20T14:28:48.915Z,51837.06
2024-02-20T14:31:18.583Z,51817.00
2024-02-20T14:34:06.078Z,51802.97
2024-02-20T14:36:42.302Z,51851.09
2024-02-20T14:39:10.778Z,51857.13
2024-02-20T14:42:05.631Z,51845.09
2024-02-20T14:44:40.358Z,51833.06
2024-02-20T14:47:08.917Z,51875.19
2024-02-20T14:49:43.376Z,51815.00
2024-02-20T14:52:19.146Z,51796.94
2024-02-20T14:54:48.429Z,51841.06
2024-02-20T14:57:19.503Z,51808.97
2024-02-20T14:59:51.023Z,51897.25
2024-02-20T15:02:19.873Z,51829.03
2024-02-20T15:04:49.605Z,51847.09
2024-02-20T15:07:19.799Z,51889.22
2024-02-20T15:09:51.001Z,51853.13
2024-02-20T15:12:20.793Z,51865.16
2024-02-20T15:14:51.763Z,51861.13
2024-02-20T15:17:20.792Z,51843.09
2024-02-20T15:19:59.214Z,51859.13
2024-02-20T15:22:27.924Z,51853.13
2024-02-20T15:24:58.520Z,51837.06
2024-02-20T15:27:27.565Z,51869.16
2024-02-20T15:30:01.194Z,51863.16
2024-02-20T15:32:29.543Z,51855.13
2024-02-20T15:34:59.337Z,51881.19
2024-02-20T15:37:28.820Z,51917.31
2024-02-20T15:39:56.997Z,51871.16
2024-02-20T15:42:31.540Z,51915.31
2024-02-20T15:44:59.767Z,51923.34
2024-02-20T15:47:29.909Z,51935.38
2024-02-20T15:49:59.529Z,51889.22
2024-02-20T15:52:30.493Z,51897.25
2024-02-20T15:55:01.527Z,51867.16
2024-02-20T15:57:29.741Z,51929.34
2024-02-20T15:59:57.904Z,51929.34
2024-02-20T16:02:26.041Z,51889.22
2024-02-20T16:04:56.983Z,51933.38
2024-02-20T16:07:26.777Z,51873.19
2024-02-20T16:09:56.656Z,51889.22
2024-02-20T16:12:24.958Z,51911.28
2024-02-20T16:14:57.094Z,51929.34
2024-02-20T16:17:27.221Z,51921.31
2024-02-20T16:19:57.413Z,51937.38
2024-02-20T16:22:27.075Z,51923.34
2024-02-20T16:24:55.251Z,51959.44
2024-02-20T16:27:23.652Z,51911.28
2024-02-20T16:29:56.843Z,51969.47
2024-02-20T16:32:25.840Z,51917.31
2024-02-20T16:34:54.190Z,51953.44
2024-02-20T16:37:22.487Z,51953.44
2024-02-20T16:39:54.916Z,51923.34
2024-02-20T16:42:24.141Z,51937.38
2024-02-20T16:44:52.397Z,51901.25
2024-02-20T16:47:20.604Z,51937.38
2024-02-20T16:49:49.611Z,51915.31
2024-02-20T16:52:23.283Z,51907.28
2024-02-20T16:54:56.357Z,51921.31
2024-02-20T16:57:24.641Z,51941.38
2024-02-20T16:59:53.379Z,51917.31
2024-02-20T17:02:22.789Z,51953.44
2024-02-20T17:04:52.217Z,51905.28
2024-02-20T17:07:20.681Z,51911.28
2024-02-20T17:09:54.393Z,51935.38
2024-02-20T17:12:24.497Z,51935.38
2024-02-20T17:14:53.159Z,51941.38
2024-02-20T17:17:25.110Z,51975.50
2024-02-20T17:19:54.635Z,51957.44
2024-02-20T17:22:23.304Z,51933.38
2024-02-20T17:24:51.972Z,51933.38
2024-02-20T17:27:22.644Z,51941.38
2024-02-20T17:29:53.335Z,51995.56
2024-02-20T17:32:21.526Z,51927.34
2024-02-20T17:34:51.792Z,51917.31
2024-02-20T17:37:21.901Z,51965.47
2024-02-20T17:39:50.232Z,51941.38
2024-02-20T17:42:18.610Z,51939.38
2024-02-20T17:44:47.103Z,51959.44
2024-02-20T17:47:19.179Z,51939.38
2024-02-20T17:49:51.950Z,51961.44
2024-02-20T17:52:20.303Z,51925.34
2024-02-20T17:54:48.523Z,51931.34
2024-02-20T17:57:17.940Z,51929.34
2024-02-20T17:59:46.845Z,51949.41
2024-02-20T18:02:16.683Z,51921.31
2024-02-20T18:04:45.040Z,51925.34
2024-02-20T18:07:13.274Z,51955.44
2024-02-20T18:09:42.975Z,51951.41
2024-02-20T18:12:13.220Z,51963.47
2024-02-20T18:14:41.537Z,51971.47
2024-02-20T18:17:10.586Z,51945.41
2024-02-20T18:19:45.945Z,51933.38
2024-02-20T18:22:14.200Z,51927.34
2024-02-20T18:24:42.627Z,51921.31
2024-02-20T18:27:10.905Z,51997.56
2024-02-20T18:29:39.166Z,52007.59
2024-02-20T18:32:10.576Z,51935.38
2024-02-20T18:34:42.587Z,51991.53
2024-02-20T18:37:16.027Z,51921.31
2024-02-20T18:39:48.197Z,51963.47
2024-02-20T18:42:16.497Z,51963.47
2024-02-20T18:44:44.788Z,51927.34
2024-02-20T18:47:13.166Z,51937.38
2024-02-20T18:49:46.756Z,51967.47
2024-02-20T18:52:16.239Z,51959.44
2024-02-20T18:54:52.958Z,51945.41
2024-02-20T18:57:38.876Z,51955.44
2024-02-20T19:00:41.006Z,51955.44
2024-02-20T19:03:49.031Z,51937.38
2024-02-20T19:07:30.060Z,51985.53
2024-02-20T19:09:36.267Z,51933.38
2024-02-20T19:13:26.064Z,51953.44
2024-02-20T19:15:31.198Z,51973.50
2024-02-20T19:18:08.235Z,51959.44
2024-02-20T19:20:40.134Z,51937.38
2024-02-20T19:23:23.959Z,51955.44
2024-02-20T19:26:20.309Z,51935.38
2024-02-20T19:31:28.378Z,51953.44
2024-02-20T19:32:26.878Z,51925.34
2024-02-20T19:35:11.025Z,51951.41
2024-02-20T19:38:08.647Z,51937.38
2024-02-20T19:40:56.967Z,51961.44
2024-02-20T19:43:44.092Z,51909.28
2024-02-20T19:46:12.623Z,51965.47
2024-02-20T19:48:40.910Z,51963.47
2024-02-20T19:51:09.421Z,51967.47
2024-02-20T19:53:37.761Z,51939.38
2024-02-20T19:56:06.444Z,51917.31
2024-02-20T19:58:37.701Z,51983.53
2024-02-20T20:01:06.555Z,51935.38
2024-02-20T20:03:35.280Z,52003.59
2024-02-20T20:06:04.149Z,51965.47
2024-02-20T20:08:32.729Z,51957.44
2024-02-20T20:11:01.515Z,51905.28
2024-02-20T20:13:31.520Z,51979.50
2024-02-20T20:16:01.326Z,51933.38
2024-02-20T20:18:29.927Z,51933.38
2024-02-20T20:21:34.385Z,51929.34
2024-02-20T20:24:19.421Z,51945.41
2024-02-20T20:26:48.382Z,51951.41
2024-02-20T20:29:16.812Z,51955.44
2024-02-20T20:31:46.552Z,51949.41
2024-02-20T20:34:14.972Z,51969.47
2024-02-20T20:36:44.043Z,51931.34
2024-02-20T20:39:13.378Z,51963.47
2024-02-20T20:41:41.659Z,51951.41
2024-02-20T20:44:10.238Z,51955.44
2024-02-20T20:46:38.803Z,51937.38
2024-02-20T20:49:08.883Z,51981.50
2024-02-20T20:51:37.163Z,51961.44
2024-02-20T20:54:05.593Z,51975.50
2024-02-20T20:56:35.142Z,51965.47
2024-02-20T20:59:04.989Z,51961.44
2024-02-20T21:01:33.922Z,51949.41
2024-02-20T21:04:04.587Z,51933.38
2024-02-20T21:06:34.974Z,51945.41
2024-02-20T21:09:03.711Z,51963.47
2024-02-20T21:11:35.415Z,51963.47
2024-02-20T21:14:03.974Z,51953.44
2024-02-20T21:16:33.038Z,51957.44
2024-02-20T21:19:02.000Z,51937.38
2024-02-20T21:21:30.877Z,51967.47
2024-02-20T21:24:01.490Z,51955.44
2024-02-20T21:26:29.949Z,51969.47
2024-02-20T21:28:58.321Z,51959.44
2024-02-20T21:31:26.649Z,51967.47
2024-02-20T21:33:55.410Z,51949.41
2024-02-20T21:36:23.940Z,51941.38
2024-02-20T21:38:52.371Z,51953.44
2024-02-20T21:41:24.796Z,51949.41
2024-02-20T21:43:53.135Z,51957.44
2024-02-20T21:46:22.050Z,51961.44
2024-02-20T21:48:51.303Z,51969.47
2024-02-20T21:51:20.337Z,51945.41
2024-02-20T21:53:48.978Z,51959.44
2024-02-20T21:56:17.216Z,51957.44
2024-02-20T21:58:47.497Z,51989.53
2024-02-20T22:01:16.425Z,51937.38
2024-02-20T22:03:45.544Z,51981.50
2024-02-20T22:06:13.886Z,51935.38
2024-02-20T22:08:42.277Z,52005.59
2024-02-20T22:11:11.152Z,51973.50
2024-02-20T22:13:40.492Z,51951.41
2024-02-20T22:16:10.764Z,51949.41
2024-02-20T22:18:39.479Z,51973.50
2024-02-20T22:21:08.124Z,51951.41
2024-02-20T22:23:36.408Z,51957.44
2024-02-20T22:26:06.183Z,51941.38
2024-02-20T22:28:34.831Z,51949.41
2024-02-20T22:31:03.269Z,51945.41
2024-02-20T22:33:33.051Z,51969.47
2024-02-20T22:36:03.548Z,51889.22
2024-02-20T22:38:33.925Z,51945.41
2024-02-20T22:41:02.314Z,51965.47
2024-02-20T22:43:30.735Z,51945.41
2024-02-20T22:45:59.248Z,51933.38
2024-02-20T22:48:27.647Z,51973.50
2024-02-20T22:50:57.540Z,51967.47
2024-02-20T22:53:28.334Z,51961.44
2024-02-20T22:55:57.040Z,51975.50
2024-02-20T22:58:25.382Z,51949.41
2024-02-20T23:00:53.748Z,51949.41
2024-02-20T23:03:22.293Z,51945.41
2024-02-20T23:05:50.935Z,51967.47
2024-02-20T23:08:21.149Z,51953.44
2024-02-20T23:10:49.895Z,51931.34
2024-02-20T23:13:18.495Z,51971.47
2024-02-20T23:15:46.951Z,51955.44
2024-02-20T23:18:15.375Z,51957.44
2024-02-20T23:20:43.646Z,51941.38
2024-02-20T23:23:12.118Z,51957.44
2024-02-20T23:25:41.820Z,51959.44
2024-02-20T23:28:10.184Z,51973.50
2024-02-20T23:30:38.448Z,51953.44
2024-02-20T23:33:07.714Z,51961.44
2024-02-20T23:35:36.345Z,51969.47
2024-02-20T23:38:04.931Z,51971.47
2024-02-20T23:40:33.177Z,51945.41
2024-02-20T23:43:02.888Z,51997.56
2024-02-20T23:45:31.155Z,51925.34
2024-02-20T23:47:59.429Z,51961.44
2024-02-20T23:50:27.680Z,51933.38
2024-02-20T23:52:56.104Z,51933.38
2024-02-20T23:55:24.373Z,51981.50
2024-02-20T23:57:52.668Z,51985.53
